Time;durP1;ratioP1;P1;durP2;ratioP2;P2;SDS_P1;SDS_P2;PMS_P1;PMS_P2;Temp;Humidity;BMP_temperature;BMP_pressure;BME280_temperature;BME280_humidity;BME280_pressure;Samples;Min_cycle;Max_cycle;Signal;HPM_P1;HPM_P2
2021/01/17 00:00:33;;;;;;;;;;;22.10;21.50;;;;;;491637;240;941;-72
2021/01/17 00:02:34;;;;;;;;;;;22.10;21.40;;;;;;491623;240;1216;-72
2021/01/17 00:04:35;;;;;;;;;;;22.10;21.40;;;;;;491643;240;932;-72
2021/01/17 00:06:37;;;;;;;;;;;22.10;21.40;;;;;;491622;240;1113;-72
2021/01/17 00:08:38;;;;;;;;;;;22.10;21.40;;;;;;491610;240;1046;-72
2021/01/17 00:10:39;;;;;;;;;;;22.10;21.40;;;;;;491612;240;947;-72
2021/01/17 00:12:41;;;;;;;;;;;22.10;21.50;;;;;;491607;240;1206;-72
2021/01/17 00:14:42;;;;;;;;;;;22.10;21.40;;;;;;491647;240;2160;-72
2021/01/17 00:16:43;;;;;;;;;;;22.20;21.40;;;;;;491616;240;1175;-72
2021/01/17 00:18:44;;;;;;;;;;;22.10;21.40;;;;;;491602;240;1177;-72
2021/01/17 00:20:46;;;;;;;;;;;22.20;21.50;;;;;;491625;240;937;-72
2021/01/17 00:22:47;;;;;;;;;;;22.20;21.40;;;;;;491606;240;1118;-72
2021/01/17 00:24:48;;;;;;;;;;;22.10;21.40;;;;;;491632;240;950;-72
2021/01/17 00:26:50;;;;;;;;;;;22.10;21.40;;;;;;491617;238;1126;-72
2021/01/17 00:28:51;;;;;;;;;;;22.20;21.50;;;;;;491651;240;966;-72
2021/01/17 00:30:52;;;;;;;;;;;22.10;21.50;;;;;;491623;240;1039;-72
2021/01/17 00:32:53;;;;;;;;;;;22.10;21.40;;;;;;491601;240;2148;-72
2021/01/17 00:34:55;;;;;;;;;;;22.10;21.40;;;;;;491558;240;937;-72
2021/01/17 00:36:56;;;;;;;;;;;22.10;21.40;;;;;;491679;240;1018;-72
2021/01/17 00:38:57;;;;;;;;;;;22.10;21.40;;;;;;491646;240;956;-72
2021/01/17 00:40:58;;;;;;;;;;;22.10;21.40;;;;;;491657;240;952;-72
2021/01/17 00:43:00;;;;;;;;;;;22.10;21.40;;;;;;491613;238;1356;-72
2021/01/17 00:45:01;;;;;;;;;;;22.10;21.40;;;;;;491691;240;960;-72
2021/01/17 00:47:02;;;;;;;;;;;22.10;21.40;;;;;;491677;240;938;-72
2021/01/17 00:49:04;;;;;;;;;;;22.10;21.40;;;;;;491670;240;1137;-72
2021/01/17 00:51:05;;;;;;;;;;;22.10;21.40;;;;;;491637;240;957;-72
2021/01/17 00:53:06;;;;;;;;;;;22.10;21.40;;;;;;491654;240;2195;-72
2021/01/17 00:55:07;;;;;;;;;;;22.10;21.40;;;;;;491666;240;1003;-72
2021/01/17 00:57:09;;;;;;;;;;;22.10;21.40;;;;;;491603;240;964;-72
2021/01/17 00:59:10;;;;;;;;;;;22.20;21.40;;;;;;491680;240;945;-72
2021/01/17 01:01:11;;;;;;;;;;;22.10;21.40;;;;;;491613;240;980;-72
2021/01/17 01:03:13;;;;;;;;;;;22.20;21.40;;;;;;491581;240;1169;-72
2021/01/17 01:05:14;;;;;;;;;;;22.20;21.40;;;;;;491567;240;925;-72
2021/01/17 01:07:15;;;;;;;;;;;22.20;21.40;;;;;;491620;240;942;-72
2021/01/17 01:09:16;;;;;;;;;;;22.20;21.50;;;;;;491608;240;1082;-72
2021/01/17 01:11:18;;;;;;;;;;;22.10;21.40;;;;;;491642;240;944;-72
2021/01/17 01:13:19;;;;;;;;;;;22.10;21.40;;;;;;491596;240;2183;-72
2021/01/17 01:15:20;;;;;;;;;;;22.10;21.50;;;;;;491606;240;1175;-72
2021/01/17 01:17:22;;;;;;;;;;;22.10;21.50;;;;;;491606;238;1206;-72
2021/01/17 01:19:23;;;;;;;;;;;22.10;21.50;;;;;;491676;240;1264;-72
2021/01/17 01:21:24;;;;;;;;;;;22.20;21.50;;;;;;491650;240;1055;-72
2021/01/17 01:23:25;;;;;;;;;;;22.10;21.40;;;;;;491669;240;952;-72
2021/01/17 01:25:27;;;;;;;;;;;22.20;21.50;;;;;;491614;240;1094;-72
2021/01/17 01:27:28;;;;;;;;;;;22.20;21.50;;;;;;491614;240;1177;-72
2021/01/17 01:29:29;;;;;;;;;;;22.10;21.40;;;;;;491617;240;1138;-72
2021/01/17 01:31:31;;;;;;;;;;;22.20;21.50;;;;;;491587;240;1229;-72
2021/01/17 01:33:32;;;;;;;;;;;22.10;21.50;;;;;;491569;240;2164;-72
2021/01/17 01:35:33;;;;;;;;;;;22.20;21.50;;;;;;491576;240;932;-72
2021/01/17 01:37:34;;;;;;;;;;;22.10;21.50;;;;;;491634;240;1167;-72
2021/01/17 01:39:38;;;;;;;;;;;22.10;21.50;;;;;;491654;240;943;-72
2021/01/17 01:41:37;;;;;;;;;;;22.10;21.50;;;;;;491607;241;1316;-72
2021/01/17 01:43:38;;;;;;;;;;;22.00;21.50;;;;;;491593;240;971;-72
2021/01/17 01:45:39;;;;;;;;;;;22.10;21.60;;;;;;491579;240;1057;-72
2021/01/17 01:47:41;;;;;;;;;;;22.10;21.50;;;;;;491680;240;953;-72
2021/01/17 01:49:42;;;;;;;;;;;22.00;21.50;;;;;;491664;240;1163;-72
2021/01/17 01:51:43;;;;;;;;;;;22.10;21.50;;;;;;491663;240;935;-73
2021/01/17 01:53:45;;;;;;;;;;;22.00;21.60;;;;;;491740;240;2180;-72
2021/01/17 01:55:46;;;;;;;;;;;22.00;21.60;;;;;;491644;240;994;-72
2021/01/17 01:57:47;;;;;;;;;;;22.00;21.60;;;;;;491630;240;1051;-72
2021/01/17 01:59:48;;;;;;;;;;;22.00;21.60;;;;;;491646;240;1057;-72
2021/01/17 02:01:50;;;;;;;;;;;22.00;21.60;;;;;;491651;240;937;-72
2021/01/17 02:03:51;;;;;;;;;;;22.00;21.60;;;;;;491678;240;1143;-72
2021/01/17 02:05:52;;;;;;;;;;;22.00;21.60;;;;;;491666;240;929;-72
2021/01/17 02:07:53;;;;;;;;;;;22.00;21.60;;;;;;491654;240;956;-72
2021/01/17 02:09:55;;;;;;;;;;;22.00;21.60;;;;;;491684;240;943;-72
2021/01/17 02:11:56;;;;;;;;;;;22.00;21.60;;;;;;491677;240;960;-72
2021/01/17 02:13:57;;;;;;;;;;;22.00;21.60;;;;;;491662;240;2191;-72
2021/01/17 02:15:59;;;;;;;;;;;22.00;21.60;;;;;;491675;240;1002;-72
2021/01/17 02:18:00;;;;;;;;;;;22.00;21.60;;;;;;491615;240;1060;-72
2021/01/17 02:20:01;;;;;;;;;;;22.00;21.60;;;;;;491677;240;1137;-72
2021/01/17 02:22:02;;;;;;;;;;;22.00;21.60;;;;;;491652;240;962;-72
2021/01/17 02:24:04;;;;;;;;;;;22.00;21.60;;;;;;491705;240;944;-72
2021/01/17 02:26:05;;;;;;;;;;;22.00;21.60;;;;;;491644;240;995;-72
2021/01/17 02:28:06;;;;;;;;;;;21.90;21.60;;;;;;491630;240;1165;-72
2021/01/17 02:30:08;;;;;;;;;;;22.00;21.60;;;;;;491650;240;972;-72
2021/01/17 02:32:09;;;;;;;;;;;22.00;21.60;;;;;;491600;240;1114;-72
2021/01/17 02:34:10;;;;;;;;;;;22.00;21.60;;;;;;491648;240;2192;-72
2021/01/17 02:36:11;;;;;;;;;;;22.00;21.60;;;;;;491659;240;1221;-72
2021/01/17 02:38:13;;;;;;;;;;;21.90;21.60;;;;;;491721;240;1032;-72
2021/01/17 02:40:14;;;;;;;;;;;22.00;21.60;;;;;;491675;240;1103;-72
2021/01/17 02:42:15;;;;;;;;;;;21.90;21.60;;;;;;491630;240;1225;-72
2021/01/17 02:44:17;;;;;;;;;;;22.00;21.60;;;;;;491676;240;952;-72
2021/01/17 02:46:18;;;;;;;;;;;21.90;21.60;;;;;;491677;240;922;-72
2021/01/17 02:48:19;;;;;;;;;;;21.90;21.60;;;;;;491698;240;919;-72
2021/01/17 02:50:20;;;;;;;;;;;21.90;21.60;;;;;;491738;240;1148;-72
2021/01/17 02:52:22;;;;;;;;;;;21.90;21.70;;;;;;491651;240;1029;-73
2021/01/17 02:54:23;;;;;;;;;;;21.90;21.70;;;;;;491680;240;2183;-72
2021/01/17 02:56:24;;;;;;;;;;;21.90;21.70;;;;;;491593;240;952;-72
2021/01/17 02:58:26;;;;;;;;;;;21.90;21.70;;;;;;491638;240;953;-72
2021/01/17 03:00:27;;;;;;;;;;;21.90;21.70;;;;;;491623;240;969;-72
2021/01/17 03:02:28;;;;;;;;;;;21.80;21.70;;;;;;491667;240;951;-72
2021/01/17 03:04:29;;;;;;;;;;;21.80;21.70;;;;;;491651;240;1244;-72
2021/01/17 03:06:31;;;;;;;;;;;21.80;21.70;;;;;;491608;240;985;-72
2021/01/17 03:08:32;;;;;;;;;;;21.70;21.80;;;;;;491652;240;930;-72
2021/01/17 03:10:33;;;;;;;;;;;21.70;21.80;;;;;;491617;240;964;-72
2021/01/17 03:12:34;;;;;;;;;;;21.70;21.80;;;;;;491600;240;929;-72
2021/01/17 03:14:36;;;;;;;;;;;21.70;21.80;;;;;;491664;240;2172;-72
2021/01/17 03:16:37;;;;;;;;;;;21.70;21.80;;;;;;491618;240;953;-72
2021/01/17 03:18:38;;;;;;;;;;;21.70;21.80;;;;;;491765;240;915;-72
2021/01/17 03:20:40;;;;;;;;;;;21.70;21.80;;;;;;491718;240;1244;-72
2021/01/17 03:22:41;;;;;;;;;;;21.70;21.80;;;;;;491683;240;1338;-72
2021/01/17 03:24:42;;;;;;;;;;;21.70;21.80;;;;;;491762;240;980;-72
2021/01/17 03:26:43;;;;;;;;;;;21.70;21.80;;;;;;491739;240;932;-72
2021/01/17 03:28:45;;;;;;;;;;;21.70;21.80;;;;;;491708;240;923;-73
2021/01/17 03:30:46;;;;;;;;;;;21.70;21.80;;;;;;491681;240;943;-72
2021/01/17 03:32:47;;;;;;;;;;;21.70;21.80;;;;;;491685;240;933;-73
2021/01/17 03:34:48;;;;;;;;;;;21.70;21.80;;;;;;491679;240;2184;-72
2021/01/17 03:36:50;;;;;;;;;;;21.70;21.80;;;;;;491704;240;1109;-72
2021/01/17 03:38:51;;;;;;;;;;;21.70;21.80;;;;;;491675;240;994;-72
2021/01/17 03:40:52;;;;;;;;;;;21.70;21.80;;;;;;491688;240;940;-72
2021/01/17 03:42:54;;;;;;;;;;;21.70;21.80;;;;;;491720;240;1043;-72
2021/01/17 03:44:55;;;;;;;;;;;21.70;21.80;;;;;;491698;240;1014;-72
2021/01/17 03:46:56;;;;;;;;;;;21.70;21.80;;;;;;491694;240;924;-72
2021/01/17 03:48:57;;;;;;;;;;;21.70;21.80;;;;;;491717;240;1142;-72
2021/01/17 03:50:59;;;;;;;;;;;21.70;21.80;;;;;;491735;240;1202;-72
2021/01/17 03:53:00;;;;;;;;;;;21.70;21.80;;;;;;491714;240;963;-72
2021/01/17 03:55:01;;;;;;;;;;;21.70;21.80;;;;;;491699;240;2200;-72
2021/01/17 03:57:03;;;;;;;;;;;21.70;21.80;;;;;;491682;240;1032;-72
2021/01/17 03:59:04;;;;;;;;;;;21.70;21.80;;;;;;491750;240;936;-72
2021/01/17 04:01:05;;;;;;;;;;;21.70;21.90;;;;;;491762;240;950;-72
2021/01/17 04:03:07;;;;;;;;;;;21.60;21.80;;;;;;491698;240;987;-72
2021/01/17 04:05:08;;;;;;;;;;;21.70;21.90;;;;;;491690;240;1161;-72
2021/01/17 04:07:09;;;;;;;;;;;21.70;21.90;;;;;;491676;240;955;-72
2021/01/17 04:09:11;;;;;;;;;;;21.60;21.90;;;;;;491741;240;1046;-72
2021/01/17 04:11:12;;;;;;;;;;;21.60;21.90;;;;;;491686;240;926;-72
2021/01/17 04:13:13;;;;;;;;;;;21.70;21.90;;;;;;491645;240;938;-72
2021/01/17 04:15:15;;;;;;;;;;;21.60;21.90;;;;;;491631;240;2145;-72
2021/01/17 04:17:16;;;;;;;;;;;21.60;21.90;;;;;;491604;240;1069;-72
2021/01/17 04:19:17;;;;;;;;;;;21.60;21.90;;;;;;491695;240;956;-72
2021/01/17 04:21:18;;;;;;;;;;;21.60;21.90;;;;;;491677;240;1208;-72
2021/01/17 04:23:20;;;;;;;;;;;21.70;21.90;;;;;;491694;240;911;-72
2021/01/17 04:25:21;;;;;;;;;;;21.70;21.90;;;;;;491705;240;1069;-72
2021/01/17 04:27:22;;;;;;;;;;;21.60;21.90;;;;;;491679;240;1119;-72
2021/01/17 04:29:23;;;;;;;;;;;21.60;22.00;;;;;;491709;240;937;-72
2021/01/17 04:31:25;;;;;;;;;;;21.70;22.00;;;;;;491681;240;1283;-72
2021/01/17 04:33:26;;;;;;;;;;;21.70;22.00;;;;;;491630;240;1069;-72
2021/01/17 04:35:27;;;;;;;;;;;21.70;22.00;;;;;;491665;240;2137;-72
2021/01/17 04:37:29;;;;;;;;;;;21.70;22.00;;;;;;491650;240;1198;-72
2021/01/17 04:39:30;;;;;;;;;;;21.60;22.00;;;;;;491691;240;1124;-72
2021/01/17 04:41:31;;;;;;;;;;;21.70;22.10;;;;;;491641;240;1275;-72
2021/01/17 04:43:34;;;;;;;;;;;21.70;22.10;;;;;;491613;240;1060;-72
2021/01/17 04:45:34;;;;;;;;;;;21.60;22.10;;;;;;491596;242;1387;-72
2021/01/17 04:47:35;;;;;;;;;;;21.70;22.10;;;;;;491662;240;1181;-72
2021/01/17 04:49:38;;;;;;;;;;;21.60;22.10;;;;;;491689;240;1009;-72
2021/01/17 04:51:39;;;;;;;;;;;21.60;22.10;;;;;;491687;240;1481;-72
2021/01/17 04:53:40;;;;;;;;;;;21.60;22.10;;;;;;491683;240;1101;-72
2021/01/17 04:55:41;;;;;;;;;;;21.60;22.20;;;;;;491711;240;2183;-72
2021/01/17 04:57:43;;;;;;;;;;;21.70;22.20;;;;;;491700;240;1108;-72
2021/01/17 04:59:44;;;;;;;;;;;21.70;22.20;;;;;;491649;240;979;-72
2021/01/17 05:01:46;;;;;;;;;;;21.70;22.20;;;;;;491673;240;952;-72
2021/01/17 05:03:47;;;;;;;;;;;21.70;22.20;;;;;;491681;240;961;-72
2021/01/17 05:05:48;;;;;;;;;;;21.60;22.20;;;;;;491666;240;1130;-72
2021/01/17 05:07:50;;;;;;;;;;;21.60;22.20;;;;;;491665;240;936;-72
2021/01/17 05:09:51;;;;;;;;;;;21.60;22.20;;;;;;491678;240;983;-72
2021/01/17 05:11:52;;;;;;;;;;;21.50;22.30;;;;;;491787;240;1114;-72
2021/01/17 05:13:54;;;;;;;;;;;21.50;22.40;;;;;;491637;240;1072;-72
2021/01/17 05:15:55;;;;;;;;;;;21.50;22.40;;;;;;491627;240;2153;-72
2021/01/17 05:17:56;;;;;;;;;;;21.50;22.40;;;;;;491661;240;927;-72
2021/01/17 05:19:57;;;;;;;;;;;21.60;22.40;;;;;;491664;240;1003;-72
2021/01/17 05:21:59;;;;;;;;;;;21.50;22.40;;;;;;491763;240;1153;-72
2021/01/17 05:24:00;;;;;;;;;;;21.50;22.40;;;;;;491735;240;1029;-72
2021/01/17 05:26:02;;;;;;;;;;;21.50;22.40;;;;;;491726;240;1011;-72
2021/01/17 05:28:03;;;;;;;;;;;21.60;22.50;;;;;;491705;240;1005;-72
2021/01/17 05:30:04;;;;;;;;;;;21.50;22.50;;;;;;491742;240;929;-72
2021/01/17 05:32:06;;;;;;;;;;;21.60;22.50;;;;;;491725;240;949;-72
2021/01/17 05:34:07;;;;;;;;;;;21.50;22.50;;;;;;491714;240;948;-72
2021/01/17 05:36:08;;;;;;;;;;;21.50;22.50;;;;;;491632;238;2180;-73
2021/01/17 05:38:09;;;;;;;;;;;21.50;22.60;;;;;;491623;240;927;-72
2021/01/17 05:40:11;;;;;;;;;;;21.50;22.60;;;;;;491616;240;957;-72
2021/01/17 05:42:12;;;;;;;;;;;21.50;22.50;;;;;;491606;240;958;-72
2021/01/17 05:44:13;;;;;;;;;;;21.60;22.60;;;;;;491683;240;985;-73
2021/01/17 05:46:15;;;;;;;;;;;21.50;22.50;;;;;;491698;240;950;-73
2021/01/17 05:48:16;;;;;;;;;;;21.50;22.50;;;;;;491663;240;974;-72
2021/01/17 05:50:17;;;;;;;;;;;21.50;22.60;;;;;;491669;240;974;-72
2021/01/17 05:52:18;;;;;;;;;;;21.40;22.60;;;;;;491680;240;1180;-72
2021/01/17 05:54:20;;;;;;;;;;;21.40;22.60;;;;;;491707;240;958;-72
2021/01/17 05:56:21;;;;;;;;;;;21.40;22.60;;;;;;491703;240;2188;-72
2021/01/17 05:58:22;;;;;;;;;;;21.40;22.60;;;;;;491724;240;952;-72
2021/01/17 06:00:24;;;;;;;;;;;21.40;22.60;;;;;;491683;240;949;-72
2021/01/17 06:02:25;;;;;;;;;;;21.40;22.70;;;;;;491641;240;936;-72
2021/01/17 06:04:26;;;;;;;;;;;21.40;22.70;;;;;;491687;240;950;-72
2021/01/17 06:06:27;;;;;;;;;;;21.40;22.70;;;;;;491725;240;1353;-72
2021/01/17 06:08:29;;;;;;;;;;;21.40;22.70;;;;;;491706;240;965;-72
2021/01/17 06:10:30;;;;;;;;;;;21.40;22.70;;;;;;491705;240;1135;-72
2021/01/17 06:12:31;;;;;;;;;;;21.40;22.70;;;;;;491745;240;1034;-72
2021/01/17 06:14:33;;;;;;;;;;;21.40;22.70;;;;;;491663;240;1110;-72
2021/01/17 06:16:34;;;;;;;;;;;21.40;22.70;;;;;;491697;241;2117;-72
2021/01/17 06:18:35;;;;;;;;;;;21.40;22.70;;;;;;491743;240;914;-72
2021/01/17 06:20:36;;;;;;;;;;;21.40;22.70;;;;;;491724;240;1188;-72
2021/01/17 06:22:38;;;;;;;;;;;21.40;22.80;;;;;;491669;240;1150;-72
2021/01/17 06:24:39;;;;;;;;;;;21.40;22.70;;;;;;491725;240;1244;-72
2021/01/17 06:26:40;;;;;;;;;;;21.40;22.70;;;;;;491779;240;1038;-72
2021/01/17 06:28:41;;;;;;;;;;;21.40;22.70;;;;;;491711;240;1056;-72
2021/01/17 06:30:43;;;;;;;;;;;21.40;22.80;;;;;;491717;240;931;-72
2021/01/17 06:32:44;;;;;;;;;;;21.40;22.80;;;;;;491702;240;991;-72
2021/01/17 06:34:45;;;;;;;;;;;21.40;22.70;;;;;;491742;240;973;-72
2021/01/17 06:36:47;;;;;;;;;;;21.40;22.80;;;;;;491668;240;2120;-72
2021/01/17 06:38:48;;;;;;;;;;;21.40;22.70;;;;;;491641;240;928;-72
2021/01/17 06:40:49;;;;;;;;;;;21.40;22.80;;;;;;491597;240;1207;-72
2021/01/17 06:42:50;;;;;;;;;;;21.40;22.70;;;;;;491582;240;1030;-72
2021/01/17 06:44:52;;;;;;;;;;;21.50;22.80;;;;;;491642;240;1065;-72
2021/01/17 06:46:53;;;;;;;;;;;21.40;22.70;;;;;;491611;240;1158;-72
2021/01/17 06:48:54;;;;;;;;;;;21.40;22.70;;;;;;491634;240;1143;-72
2021/01/17 06:50:56;;;;;;;;;;;21.40;22.80;;;;;;491578;240;1205;-72
2021/01/17 06:52:57;;;;;;;;;;;21.30;22.90;;;;;;491696;240;1143;-72
2021/01/17 06:54:58;;;;;;;;;;;21.30;22.90;;;;;;491690;240;2193;-72
2021/01/17 06:56:59;;;;;;;;;;;21.30;22.90;;;;;;491648;240;1160;-72
2021/01/17 06:59:01;;;;;;;;;;;21.30;22.90;;;;;;491626;240;982;-73
2021/01/17 07:01:02;;;;;;;;;;;21.30;22.90;;;;;;491574;240;1162;-73
2021/01/17 07:03:03;;;;;;;;;;;21.30;22.90;;;;;;491639;240;1053;-72
2021/01/17 07:05:04;;;;;;;;;;;21.30;23.00;;;;;;491599;240;1178;-72
2021/01/17 07:07:06;;;;;;;;;;;21.20;22.90;;;;;;491579;240;1141;-72
2021/01/17 07:09:07;;;;;;;;;;;21.30;22.90;;;;;;491667;240;970;-72
2021/01/17 07:11:08;;;;;;;;;;;21.30;23.00;;;;;;491663;240;967;-72
2021/01/17 07:13:10;;;;;;;;;;;21.20;23.00;;;;;;491665;240;954;-72
2021/01/17 07:15:11;;;;;;;;;;;21.20;23.00;;;;;;491633;240;2249;-72
2021/01/17 07:17:12;;;;;;;;;;;21.20;23.00;;;;;;491641;240;982;-72
2021/01/17 07:19:13;;;;;;;;;;;21.20;23.00;;;;;;491746;240;933;-72
2021/01/17 07:21:15;;;;;;;;;;;21.20;23.00;;;;;;491668;240;1030;-72
2021/01/17 07:23:16;;;;;;;;;;;21.20;23.00;;;;;;491745;240;1151;-72
2021/01/17 07:25:17;;;;;;;;;;;21.20;23.00;;;;;;491570;240;970;-72
2021/01/17 07:27:18;;;;;;;;;;;21.20;23.00;;;;;;491622;240;960;-72
2021/01/17 07:29:20;;;;;;;;;;;21.10;23.00;;;;;;491666;240;985;-72
2021/01/17 07:31:21;;;;;;;;;;;21.20;23.10;;;;;;491701;240;1001;-72
2021/01/17 07:33:22;;;;;;;;;;;21.20;23.10;;;;;;491635;240;939;-72
2021/01/17 07:35:24;;;;;;;;;;;21.20;23.00;;;;;;491620;240;2160;-72
2021/01/17 07:37:25;;;;;;;;;;;21.10;23.10;;;;;;491671;240;1111;-72
2021/01/17 07:39:26;;;;;;;;;;;21.00;23.10;;;;;;491613;240;1061;-72
2021/01/17 07:41:28;;;;;;;;;;;21.00;23.10;;;;;;491625;240;968;-72
2021/01/17 07:43:30;;;;;;;;;;;20.90;23.10;;;;;;491625;240;1024;-72
2021/01/17 07:45:31;;;;;;;;;;;20.90;23.20;;;;;;491608;240;1005;-72
2021/01/17 07:47:33;;;;;;;;;;;20.90;23.30;;;;;;491660;240;937;-72
2021/01/17 07:49:34;;;;;;;;;;;20.90;23.30;;;;;;491681;240;1244;-72
2021/01/17 07:51:35;;;;;;;;;;;20.80;23.30;;;;;;491717;240;1065;-72
2021/01/17 07:53:36;;;;;;;;;;;20.80;23.30;;;;;;491573;240;1172;-72
2021/01/17 07:55:38;;;;;;;;;;;20.80;23.40;;;;;;491648;240;2192;-72
2021/01/17 07:57:39;;;;;;;;;;;20.80;23.40;;;;;;491654;241;1360;-72
2021/01/17 07:59:40;;;;;;;;;;;20.70;23.40;;;;;;491683;240;966;-72
2021/01/17 08:01:41;;;;;;;;;;;20.70;23.40;;;;;;491666;240;995;-72
2021/01/17 08:03:42;;;;;;;;;;;20.70;23.40;;;;;;491656;240;1005;-72
2021/01/17 08:05:44;;;;;;;;;;;20.70;23.50;;;;;;491683;240;967;-72
2021/01/17 08:07:45;;;;;;;;;;;20.70;23.50;;;;;;491662;240;1170;-72
2021/01/17 08:09:47;;;;;;;;;;;20.70;23.50;;;;;;491639;240;959;-72
2021/01/17 08:11:48;;;;;;;;;;;20.70;23.50;;;;;;491720;240;1343;-72
2021/01/17 08:13:49;;;;;;;;;;;20.70;23.50;;;;;;491683;240;1140;-72
2021/01/17 08:15:51;;;;;;;;;;;20.70;23.60;;;;;;491689;240;2156;-72
2021/01/17 08:17:52;;;;;;;;;;;20.70;23.60;;;;;;491727;240;953;-72
2021/01/17 08:19:53;;;;;;;;;;;20.60;23.60;;;;;;491701;240;979;-72
2021/01/17 08:21:54;;;;;;;;;;;20.60;23.60;;;;;;491590;240;1110;-72
2021/01/17 08:23:56;;;;;;;;;;;20.60;23.60;;;;;;491630;240;1037;-72
2021/01/17 08:25:57;;;;;;;;;;;20.60;23.60;;;;;;491648;240;1004;-72
2021/01/17 08:27:58;;;;;;;;;;;20.60;23.70;;;;;;491683;240;924;-72
2021/01/17 08:30:00;;;;;;;;;;;20.60;23.70;;;;;;491744;240;956;-72
2021/01/17 08:32:01;;;;;;;;;;;20.60;23.70;;;;;;491669;240;1074;-72
2021/01/17 08:34:02;;;;;;;;;;;20.60;23.80;;;;;;491725;240;965;-72
2021/01/17 08:36:03;;;;;;;;;;;20.50;23.70;;;;;;491672;240;2116;-72
2021/01/17 08:38:05;;;;;;;;;;;20.50;23.80;;;;;;491694;240;1218;-72
2021/01/17 08:40:06;;;;;;;;;;;20.50;23.80;;;;;;491655;240;1084;-72
2021/01/17 08:42:07;;;;;;;;;;;20.50;23.80;;;;;;491665;240;1056;-72
2021/01/17 08:44:09;;;;;;;;;;;20.60;23.80;;;;;;491699;240;964;-72
2021/01/17 08:46:11;;;;;;;;;;;20.70;23.70;;;;;;491622;240;1016;-72
2021/01/17 08:48:11;;;;;;;;;;;20.80;23.60;;;;;;491599;240;1436;-72
2021/01/17 08:50:12;;;;;;;;;;;20.90;23.50;;;;;;491529;240;1030;-72
2021/01/17 08:52:14;;;;;;;;;;;21.00;23.50;;;;;;491638;240;1208;-72
2021/01/17 08:54:15;;;;;;;;;;;21.00;23.50;;;;;;491661;240;1171;-72
2021/01/17 08:56:19;;;;;;;;;;;21.00;23.50;;;;;;491754;240;2195;-72
2021/01/17 08:58:17;;;;;;;;;;;21.10;23.50;;;;;;491636;241;1460;-72
2021/01/17 09:00:19;;;;;;;;;;;21.10;23.40;;;;;;491639;240;957;-72
2021/01/17 09:02:20;;;;;;;;;;;21.20;23.40;;;;;;491649;240;1089;-72
2021/01/17 09:04:21;;;;;;;;;;;21.20;23.40;;;;;;491703;240;947;-72
2021/01/17 09:06:23;;;;;;;;;;;21.20;23.40;;;;;;491617;240;1134;-72
2021/01/17 09:08:24;;;;;;;;;;;21.20;23.40;;;;;;491647;240;1175;-72
2021/01/17 09:10:25;;;;;;;;;;;21.30;23.40;;;;;;491713;240;933;-72
2021/01/17 09:12:27;;;;;;;;;;;21.30;23.30;;;;;;491730;240;968;-72
2021/01/17 09:14:28;;;;;;;;;;;21.40;23.30;;;;;;491765;240;934;-72
2021/01/17 09:16:29;;;;;;;;;;;21.30;23.40;;;;;;491678;240;2175;-72
2021/01/17 09:18:31;;;;;;;;;;;21.30;23.30;;;;;;491702;240;1002;-72
2021/01/17 09:20:32;;;;;;;;;;;21.40;23.30;;;;;;491710;240;947;-72
2021/01/17 09:22:33;;;;;;;;;;;21.40;23.30;;;;;;491614;240;1032;-73
2021/01/17 09:24:34;;;;;;;;;;;21.40;23.30;;;;;;491660;240;1073;-72
2021/01/17 09:26:36;;;;;;;;;;;21.40;23.30;;;;;;491697;240;943;-72
2021/01/17 09:28:37;;;;;;;;;;;21.40;23.30;;;;;;491656;240;980;-72
2021/01/17 09:30:38;;;;;;;;;;;21.50;23.30;;;;;;491696;240;965;-72
2021/01/17 09:32:40;;;;;;;;;;;21.40;23.30;;;;;;491624;240;1335;-72
2021/01/17 09:34:41;;;;;;;;;;;21.40;23.30;;;;;;491747;240;1064;-72
2021/01/17 09:36:42;;;;;;;;;;;21.60;23.40;;;;;;491713;240;2202;-72
2021/01/17 09:38:43;;;;;;;;;;;21.50;23.30;;;;;;491601;240;1126;-72
2021/01/17 09:40:45;;;;;;;;;;;21.60;23.40;;;;;;491672;240;1042;-72
2021/01/17 09:42:46;;;;;;;;;;;21.60;23.40;;;;;;491659;240;1074;-72
2021/01/17 09:44:47;;;;;;;;;;;21.60;23.40;;;;;;491658;240;1087;-72
2021/01/17 09:46:49;;;;;;;;;;;21.60;23.40;;;;;;491615;240;1267;-72
2021/01/17 09:48:50;;;;;;;;;;;21.60;23.40;;;;;;491572;240;1146;-72
2021/01/17 09:50:51;;;;;;;;;;;21.60;23.40;;;;;;491673;240;1169;-72
2021/01/17 09:52:52;;;;;;;;;;;21.60;23.40;;;;;;491640;240;1378;-72
2021/01/17 09:54:54;;;;;;;;;;;21.60;23.40;;;;;;491738;240;1183;-72
2021/01/17 09:56:55;;;;;;;;;;;21.60;23.40;;;;;;491621;240;2184;-72
2021/01/17 09:58:57;;;;;;;;;;;21.60;23.40;;;;;;491621;240;1032;-72
2021/01/17 10:00:58;;;;;;;;;;;21.70;23.40;;;;;;491544;240;1155;-72
2021/01/17 10:02:59;;;;;;;;;;;21.60;23.40;;;;;;491728;240;1064;-72
2021/01/17 10:05:00;;;;;;;;;;;21.60;23.40;;;;;;491630;240;945;-73
2021/01/17 10:07:02;;;;;;;;;;;21.70;23.40;;;;;;491659;240;1330;-72
2021/01/17 10:09:03;;;;;;;;;;;21.70;23.40;;;;;;491654;240;1080;-72
2021/01/17 10:11:04;;;;;;;;;;;21.70;23.40;;;;;;491551;240;1163;-72
2021/01/17 10:13:07;;;;;;;;;;;21.70;23.40;;;;;;491699;240;946;-72
2021/01/17 10:15:07;;;;;;;;;;;21.70;23.40;;;;;;491583;242;1377;-72
2021/01/17 10:17:08;;;;;;;;;;;21.70;23.40;;;;;;491655;240;2183;-72
2021/01/17 10:19:10;;;;;;;;;;;21.70;23.40;;;;;;491636;240;1045;-72
2021/01/17 10:21:11;;;;;;;;;;;21.70;23.40;;;;;;491628;240;944;-72
2021/01/17 10:23:12;;;;;;;;;;;21.70;23.40;;;;;;491722;240;1001;-72
2021/01/17 10:25:13;;;;;;;;;;;21.80;23.40;;;;;;491650;240;1141;-72
2021/01/17 10:27:15;;;;;;;;;;;21.80;23.40;;;;;;491691;240;985;-72
2021/01/17 10:29:16;;;;;;;;;;;21.80;23.40;;;;;;491647;240;923;-72
2021/01/17 10:31:17;;;;;;;;;;;21.80;23.40;;;;;;491636;240;999;-73
2021/01/17 10:33:19;;;;;;;;;;;21.80;23.40;;;;;;491650;240;973;-72
2021/01/17 10:35:20;;;;;;;;;;;21.80;23.40;;;;;;491573;240;1458;-72
2021/01/17 10:37:21;;;;;;;;;;;21.80;23.40;;;;;;491613;240;2149;-72
2021/01/17 10:39:22;;;;;;;;;;;21.80;23.40;;;;;;491704;240;1102;-72
2021/01/17 10:41:24;;;;;;;;;;;21.80;23.40;;;;;;491595;240;1030;-72
2021/01/17 10:43:25;;;;;;;;;;;21.80;23.40;;;;;;491564;240;1182;-72
2021/01/17 10:45:26;;;;;;;;;;;21.80;23.40;;;;;;491589;240;951;-72
2021/01/17 10:47:27;;;;;;;;;;;21.80;23.40;;;;;;491516;240;1195;-72
2021/01/17 10:49:29;;;;;;;;;;;21.80;23.40;;;;;;491544;240;1090;-72
2021/01/17 10:51:30;;;;;;;;;;;21.80;23.40;;;;;;491671;240;912;-72
2021/01/17 10:53:32;;;;;;;;;;;21.90;23.40;;;;;;491615;240;1133;-72
2021/01/17 10:55:34;;;;;;;;;;;21.90;23.40;;;;;;491669;240;1248;-72
2021/01/17 10:57:35;;;;;;;;;;;21.90;23.40;;;;;;491638;240;2183;-72
2021/01/17 10:59:36;;;;;;;;;;;21.80;23.40;;;;;;491647;240;984;-72
2021/01/17 11:01:37;;;;;;;;;;;21.90;23.50;;;;;;491617;240;962;-72
2021/01/17 11:03:39;;;;;;;;;;;21.80;23.40;;;;;;491707;240;954;-72
2021/01/17 11:05:40;;;;;;;;;;;21.80;23.40;;;;;;491650;240;1008;-72
2021/01/17 11:07:41;;;;;;;;;;;21.90;23.50;;;;;;491637;240;951;-72
2021/01/17 11:09:42;;;;;;;;;;;21.90;23.40;;;;;;491705;238;1332;-72
2021/01/17 11:11:44;;;;;;;;;;;21.90;23.30;;;;;;491679;240;1085;-72
2021/01/17 11:13:45;;;;;;;;;;;21.90;23.40;;;;;;491678;240;1101;-72
2021/01/17 11:15:46;;;;;;;;;;;21.90;23.40;;;;;;491696;240;1096;-72
2021/01/17 11:17:48;;;;;;;;;;;21.80;23.40;;;;;;491673;240;2188;-72
2021/01/17 11:19:49;;;;;;;;;;;21.90;23.40;;;;;;491566;240;947;-72
2021/01/17 11:21:50;;;;;;;;;;;21.90;23.40;;;;;;491598;240;1115;-72
2021/01/17 11:23:51;;;;;;;;;;;21.90;23.40;;;;;;491689;240;927;-72
2021/01/17 11:25:53;;;;;;;;;;;21.90;23.40;;;;;;491693;240;1287;-72
2021/01/17 11:27:54;;;;;;;;;;;22.00;23.40;;;;;;491640;240;936;-72
2021/01/17 11:29:55;;;;;;;;;;;21.90;23.30;;;;;;491629;240;998;-72
2021/01/17 11:31:57;;;;;;;;;;;22.00;23.30;;;;;;491717;240;929;-72
2021/01/17 11:33:58;;;;;;;;;;;22.00;23.30;;;;;;491725;240;1050;-72
2021/01/17 11:35:59;;;;;;;;;;;22.00;23.30;;;;;;491668;240;943;-72
2021/01/17 11:38:00;;;;;;;;;;;21.90;23.30;;;;;;491684;240;2191;-72
2021/01/17 11:40:02;;;;;;;;;;;22.00;23.40;;;;;;491625;240;1174;-72
2021/01/17 11:42:03;;;;;;;;;;;22.00;23.40;;;;;;491644;240;973;-72
2021/01/17 11:44:04;;;;;;;;;;;22.00;23.30;;;;;;491650;240;1102;-72
2021/01/17 11:46:05;;;;;;;;;;;22.00;23.30;;;;;;491632;240;968;-72
2021/01/17 11:48:07;;;;;;;;;;;22.00;23.40;;;;;;491646;240;1171;-72
2021/01/17 11:50:08;;;;;;;;;;;22.00;23.40;;;;;;491584;240;1123;-72
2021/01/17 11:52:09;;;;;;;;;;;22.00;23.40;;;;;;491593;240;1155;-72
2021/01/17 11:54:11;;;;;;;;;;;21.90;23.40;;;;;;491609;240;945;-72
2021/01/17 11:56:12;;;;;;;;;;;21.90;23.40;;;;;;491669;240;1196;-72
2021/01/17 11:58:13;;;;;;;;;;;21.90;23.40;;;;;;491662;240;2176;-72
2021/01/17 12:00:14;;;;;;;;;;;21.90;23.40;;;;;;491649;240;987;-72